sensor_id;sensor_type;location;lat;lon;timestamp;temperature;humidity
11838;DHT22;5978;51.020;6.764;2022-12-20T00:00:01;10.10;99.90
11838;DHT22;5978;51.020;6.764;2022-12-20T00:02:27;10.00;99.90
11838;DHT22;5978;51.020;6.764;2022-12-20T00:04:52;9.90;99.90
11838;DHT22;5978;51.020;6.764;2022-12-20T00:07:18;9.90;99.90
11838;DHT22;5978;51.020;6.764;2022-12-20T00:09:43;9.80;99.90
11838;DHT22;5978;51.020;6.764;2022-12-20T00:12:09;9.70;99.90
11838;DHT22;5978;51.020;6.764;2022-12-20T00:14:34;9.70;99.90
11838;DHT22;5978;51.020;6.764;2022-12-20T00:17:00;9.70;99.90
11838;DHT22;5978;51.020;6.764;2022-12-20T00:19:25;9.70;99.90
11838;DHT22;5978;51.020;6.764;2022-12-20T00:21:51;9.70;99.90
11838;DHT22;5978;51.020;6.764;2022-12-20T00:24:16;9.60;99.90
11838;DHT22;5978;51.020;6.764;2022-12-20T00:26:42;9.60;99.90
11838;DHT22;5978;51.020;6.764;2022-12-20T00:29:07;9.60;99.90
11838;DHT22;5978;51.020;6.764;2022-12-20T00:31:33;9.70;99.90
11838;DHT22;5978;51.020;6.764;2022-12-20T00:33:59;9.60;99.90
11838;DHT22;5978;51.020;6.764;2022-12-20T00:36:28;9.70;99.90
11838;DHT22;5978;51.020;6.764;2022-12-20T00:38:55;9.70;99.90
11838;DHT22;5978;51.020;6.764;2022-12-20T00:41:26;9.70;99.90
11838;DHT22;5978;51.020;6.764;2022-12-20T00:43:52;9.60;99.90
11838;DHT22;5978;51.020;6.764;2022-12-20T00:46:19;9.60;99.90
11838;DHT22;5978;51.020;6.764;2022-12-20T00:48:47;9.60;99.90
11838;DHT22;5978;51.020;6.764;2022-12-20T00:51:15;9.60;99.90
11838;DHT22;5978;51.020;6.764;2022-12-20T00:53:42;9.50;99.90
11838;DHT22;5978;51.020;6.764;2022-12-20T00:56:08;9.50;99.90
11838;DHT22;5978;51.020;6.764;2022-12-20T00:58:36;9.50;99.90
11838;DHT22;5978;51.020;6.764;2022-12-20T01:01:04;9.50;99.90
11838;DHT22;5978;51.020;6.764;2022-12-20T01:03:29;9.50;99.90
11838;DHT22;5978;51.020;6.764;2022-12-20T01:05:58;9.40;99.90
11838;DHT22;5978;51.020;6.764;2022-12-20T01:08:25;9.40;99.90
11838;DHT22;5978;51.020;6.764;2022-12-20T01:11:10;9.40;99.90
11838;DHT22;5978;51.020;6.764;2022-12-20T01:13:38;9.30;99.90
11838;DHT22;5978;51.020;6.764;2022-12-20T01:16:13;9.30;99.90
11838;DHT22;5978;51.020;6.764;2022-12-20T01:18:39;9.30;99.90
11838;DHT22;5978;51.020;6.764;2022-12-20T01:21:08;9.30;99.90
11838;DHT22;5978;51.020;6.764;2022-12-20T01:23:35;9.40;99.90
11838;DHT22;5978;51.020;6.764;2022-12-20T01:26:02;9.40;99.90
11838;DHT22;5978;51.020;6.764;2022-12-20T01:28:29;9.40;99.90
11838;DHT22;5978;51.020;6.764;2022-12-20T01:30:55;9.40;99.90
11838;DHT22;5978;51.020;6.764;2022-12-20T01:33:21;9.40;99.90
11838;DHT22;5978;51.020;6.764;2022-12-20T01:35:57;9.40;99.90
11838;DHT22;5978;51.020;6.764;2022-12-20T01:38:23;9.50;99.90
11838;DHT22;5978;51.020;6.764;2022-12-20T01:40:49;9.50;99.90
11838;DHT22;5978;51.020;6.764;2022-12-20T01:43:17;9.50;99.90
11838;DHT22;5978;51.020;6.764;2022-12-20T01:45:42;9.60;99.90
11838;DHT22;5978;51.020;6.764;2022-12-20T01:48:08;9.60;99.90
11838;DHT22;5978;51.020;6.764;2022-12-20T01:50:35;9.70;99.90
11838;DHT22;5978;51.020;6.764;2022-12-20T01:53:01;9.70;99.90
11838;DHT22;5978;51.020;6.764;2022-12-20T01:55:29;9.70;99.90
11838;DHT22;5978;51.020;6.764;2022-12-20T01:58:02;9.70;99.90
11838;DHT22;5978;51.020;6.764;2022-12-20T02:00:29;9.80;99.90
11838;DHT22;5978;51.020;6.764;2022-12-20T02:02:58;9.90;99.90
11838;DHT22;5978;51.020;6.764;2022-12-20T02:05:24;9.90;99.90
11838;DHT22;5978;51.020;6.764;2022-12-20T02:07:53;9.90;99.90
11838;DHT22;5978;51.020;6.764;2022-12-20T02:10:22;9.90;99.90
11838;DHT22;5978;51.020;6.764;2022-12-20T02:12:49;9.90;99.90
11838;DHT22;5978;51.020;6.764;2022-12-20T02:15:29;10.00;99.90
11838;DHT22;5978;51.020;6.764;2022-12-20T02:18:12;10.00;99.90
11838;DHT22;5978;51.020;6.764;2022-12-20T02:31:43;10.00;99.90
11838;DHT22;5978;51.020;6.764;2022-12-20T02:34:10;10.00;99.90
11838;DHT22;5978;51.020;6.764;2022-12-20T02:36:37;10.00;99.90
11838;DHT22;5978;51.020;6.764;2022-12-20T02:39:04;9.80;99.90
11838;DHT22;5978;51.020;6.764;2022-12-20T02:41:34;9.80;99.90
11838;DHT22;5978;51.020;6.764;2022-12-20T02:44:08;9.80;99.90
11838;DHT22;5978;51.020;6.764;2022-12-20T02:46:55;9.80;99.90
11838;DHT22;5978;51.020;6.764;2022-12-20T02:49:25;9.80;99.90
11838;DHT22;5978;51.020;6.764;2022-12-20T02:51:53;9.80;99.90
11838;DHT22;5978;51.020;6.764;2022-12-20T02:54:20;9.80;99.90
11838;DHT22;5978;51.020;6.764;2022-12-20T02:57:07;9.70;99.90
11838;DHT22;5978;51.020;6.764;2022-12-20T02:59:57;9.80;99.90
11838;DHT22;5978;51.020;6.764;2022-12-20T03:02:26;9.80;99.90
11838;DHT22;5978;51.020;6.764;2022-12-20T03:04:52;9.70;99.90
11838;DHT22;5978;51.020;6.764;2022-12-20T03:07:18;9.70;99.90
11838;DHT22;5978;51.020;6.764;2022-12-20T03:09:44;9.70;99.90
11838;DHT22;5978;51.020;6.764;2022-12-20T03:12:11;9.60;99.90
11838;DHT22;5978;51.020;6.764;2022-12-20T03:14:38;9.60;99.90
11838;DHT22;5978;51.020;6.764;2022-12-20T03:17:04;9.60;99.90
11838;DHT22;5978;51.020;6.764;2022-12-20T03:19:30;9.60;99.90
11838;DHT22;5978;51.020;6.764;2022-12-20T03:21:56;9.60;99.90
11838;DHT22;5978;51.020;6.764;2022-12-20T03:24:21;9.60;99.90
11838;DHT22;5978;51.020;6.764;2022-12-20T03:26:47;9.60;99.90
11838;DHT22;5978;51.020;6.764;2022-12-20T03:29:13;9.60;99.90
11838;DHT22;5978;51.020;6.764;2022-12-20T03:31:38;9.60;99.90
11838;DHT22;5978;51.020;6.764;2022-12-20T03:34:04;9.60;99.90
11838;DHT22;5978;51.020;6.764;2022-12-20T03:36:30;9.60;99.90
11838;DHT22;5978;51.020;6.764;2022-12-20T03:38:56;9.60;99.90
11838;DHT22;5978;51.020;6.764;2022-12-20T03:41:22;9.60;99.90
11838;DHT22;5978;51.020;6.764;2022-12-20T03:43:48;9.60;99.90
11838;DHT22;5978;51.020;6.764;2022-12-20T03:46:14;9.60;99.90
11838;DHT22;5978;51.020;6.764;2022-12-20T03:48:40;9.60;99.90
11838;DHT22;5978;51.020;6.764;2022-12-20T03:51:05;9.60;99.90
11838;DHT22;5978;51.020;6.764;2022-12-20T03:53:31;9.60;99.90
11838;DHT22;5978;51.020;6.764;2022-12-20T03:55:57;9.50;99.90
11838;DHT22;5978;51.020;6.764;2022-12-20T03:58:22;9.50;99.90
11838;DHT22;5978;51.020;6.764;2022-12-20T04:00:48;9.60;99.90
11838;DHT22;5978;51.020;6.764;2022-12-20T04:03:14;9.60;99.90
11838;DHT22;5978;51.020;6.764;2022-12-20T04:05:39;9.60;99.90
11838;DHT22;5978;51.020;6.764;2022-12-20T04:08:05;9.50;99.90
11838;DHT22;5978;51.020;6.764;2022-12-20T04:10:31;9.50;99.90
11838;DHT22;5978;51.020;6.764;2022-12-20T04:12:56;9.50;99.90
11838;DHT22;5978;51.020;6.764;2022-12-20T04:15:22;9.50;99.90
11838;DHT22;5978;51.020;6.764;2022-12-20T04:17:47;9.50;99.90
11838;DHT22;5978;51.020;6.764;2022-12-20T04:20:14;9.60;99.90
11838;DHT22;5978;51.020;6.764;2022-12-20T04:22:47;9.60;99.90
11838;DHT22;5978;51.020;6.764;2022-12-20T04:25:13;9.50;99.90
11838;DHT22;5978;51.020;6.764;2022-12-20T04:27:39;9.50;99.90
11838;DHT22;5978;51.020;6.764;2022-12-20T04:30:05;9.40;99.90
11838;DHT22;5978;51.020;6.764;2022-12-20T04:32:31;9.40;99.90
11838;DHT22;5978;51.020;6.764;2022-12-20T04:34:57;9.40;99.90
11838;DHT22;5978;51.020;6.764;2022-12-20T04:37:22;9.40;99.90
11838;DHT22;5978;51.020;6.764;2022-12-20T04:39:48;9.40;99.90
11838;DHT22;5978;51.020;6.764;2022-12-20T04:42:13;9.40;99.90
11838;DHT22;5978;51.020;6.764;2022-12-20T04:44:39;9.40;99.90
11838;DHT22;5978;51.020;6.764;2022-12-20T04:47:04;9.40;99.90
11838;DHT22;5978;51.020;6.764;2022-12-20T04:49:30;9.40;99.90
11838;DHT22;5978;51.020;6.764;2022-12-20T04:51:55;9.40;99.90
11838;DHT22;5978;51.020;6.764;2022-12-20T04:54:41;9.30;99.90
11838;DHT22;5978;51.020;6.764;2022-12-20T04:57:06;9.30;99.90
11838;DHT22;5978;51.020;6.764;2022-12-20T04:59:34;9.40;99.90
11838;DHT22;5978;51.020;6.764;2022-12-20T05:02:00;9.40;99.90
11838;DHT22;5978;51.020;6.764;2022-12-20T05:04:25;9.40;99.90
11838;DHT22;5978;51.020;6.764;2022-12-20T05:06:51;9.30;99.90
11838;DHT22;5978;51.020;6.764;2022-12-20T05:09:16;9.40;99.90
11838;DHT22;5978;51.020;6.764;2022-12-20T05:11:42;9.40;99.90
11838;DHT22;5978;51.020;6.764;2022-12-20T05:14:07;9.40;99.90
11838;DHT22;5978;51.020;6.764;2022-12-20T05:16:33;9.40;99.90
11838;DHT22;5978;51.020;6.764;2022-12-20T05:18:58;9.40;99.90
11838;DHT22;5978;51.020;6.764;2022-12-20T05:21:24;9.40;99.90
11838;DHT22;5978;51.020;6.764;2022-12-20T05:24:08;9.50;99.90
11838;DHT22;5978;51.020;6.764;2022-12-20T05:26:53;9.40;99.90
11838;DHT22;5978;51.020;6.764;2022-12-20T05:29:18;9.40;99.90
11838;DHT22;5978;51.020;6.764;2022-12-20T05:31:44;9.40;99.90
11838;DHT22;5978;51.020;6.764;2022-12-20T05:34:09;9.40;99.90
11838;DHT22;5978;51.020;6.764;2022-12-20T05:36:35;9.40;99.90
11838;DHT22;5978;51.020;6.764;2022-12-20T05:39:00;9.40;99.90
11838;DHT22;5978;51.020;6.764;2022-12-20T05:41:26;9.40;99.90
11838;DHT22;5978;51.020;6.764;2022-12-20T05:43:52;9.40;99.90
11838;DHT22;5978;51.020;6.764;2022-12-20T05:46:17;9.40;99.90
11838;DHT22;5978;51.020;6.764;2022-12-20T05:48:43;9.30;99.90
11838;DHT22;5978;51.020;6.764;2022-12-20T05:51:08;9.30;99.90
11838;DHT22;5978;51.020;6.764;2022-12-20T05:53:34;9.30;99.90
11838;DHT22;5978;51.020;6.764;2022-12-20T05:55:59;9.30;99.90
11838;DHT22;5978;51.020;6.764;2022-12-20T05:58:26;9.30;99.90
11838;DHT22;5978;51.020;6.764;2022-12-20T06:00:51;9.30;99.90
11838;DHT22;5978;51.020;6.764;2022-12-20T06:03:17;9.40;99.90
11838;DHT22;5978;51.020;6.764;2022-12-20T06:05:43;9.40;99.90
11838;DHT22;5978;51.020;6.764;2022-12-20T06:08:10;9.40;99.90
11838;DHT22;5978;51.020;6.764;2022-12-20T06:10:36;9.40;99.90
11838;DHT22;5978;51.020;6.764;2022-12-20T06:13:02;9.40;99.90
11838;DHT22;5978;51.020;6.764;2022-12-20T06:15:29;9.50;99.90
11838;DHT22;5978;51.020;6.764;2022-12-20T06:17:55;9.50;99.90
11838;DHT22;5978;51.020;6.764;2022-12-20T06:20:21;9.50;99.90
11838;DHT22;5978;51.020;6.764;2022-12-20T06:22:46;9.50;99.90
11838;DHT22;5978;51.020;6.764;2022-12-20T06:25:12;9.50;99.90
11838;DHT22;5978;51.020;6.764;2022-12-20T06:27:40;9.50;99.90
11838;DHT22;5978;51.020;6.764;2022-12-20T06:30:09;9.50;99.90
11838;DHT22;5978;51.020;6.764;2022-12-20T06:32:35;9.50;99.90
11838;DHT22;5978;51.020;6.764;2022-12-20T06:35:00;9.50;99.90
11838;DHT22;5978;51.020;6.764;2022-12-20T06:37:26;9.50;99.90
11838;DHT22;5978;51.020;6.764;2022-12-20T06:39:52;9.50;99.90
11838;DHT22;5978;51.020;6.764;2022-12-20T06:42:18;9.50;99.90
11838;DHT22;5978;51.020;6.764;2022-12-20T06:44:43;9.50;99.90
11838;DHT22;5978;51.020;6.764;2022-12-20T06:47:09;9.50;99.90
11838;DHT22;5978;51.020;6.764;2022-12-20T06:49:34;9.50;99.90
11838;DHT22;5978;51.020;6.764;2022-12-20T06:52:00;9.50;99.90
11838;DHT22;5978;51.020;6.764;2022-12-20T06:54:25;9.50;99.90
11838;DHT22;5978;51.020;6.764;2022-12-20T06:56:51;9.50;99.90
11838;DHT22;5978;51.020;6.764;2022-12-20T06:59:17;9.50;99.90
11838;DHT22;5978;51.020;6.764;2022-12-20T07:01:42;9.60;99.90
11838;DHT22;5978;51.020;6.764;2022-12-20T07:04:09;9.60;99.90
11838;DHT22;5978;51.020;6.764;2022-12-20T07:06:34;9.50;99.90
11838;DHT22;5978;51.020;6.764;2022-12-20T07:09:00;9.50;99.90
11838;DHT22;5978;51.020;6.764;2022-12-20T07:11:25;9.60;99.90
11838;DHT22;5978;51.020;6.764;2022-12-20T07:13:54;9.60;99.90
11838;DHT22;5978;51.020;6.764;2022-12-20T07:16:21;9.60;99.90
11838;DHT22;5978;51.020;6.764;2022-12-20T07:18:50;9.60;99.90
11838;DHT22;5978;51.020;6.764;2022-12-20T07:21:17;9.50;99.90
11838;DHT22;5978;51.020;6.764;2022-12-20T07:23:44;9.40;99.90
11838;DHT22;5978;51.020;6.764;2022-12-20T07:26:09;9.40;99.90
11838;DHT22;5978;51.020;6.764;2022-12-20T07:28:36;9.40;99.90
11838;DHT22;5978;51.020;6.764;2022-12-20T07:31:02;9.40;99.90
11838;DHT22;5978;51.020;6.764;2022-12-20T07:33:28;9.40;99.90
11838;DHT22;5978;51.020;6.764;2022-12-20T07:36:01;9.40;99.90
11838;DHT22;5978;51.020;6.764;2022-12-20T07:38:27;9.40;99.90
11838;DHT22;5978;51.020;6.764;2022-12-20T07:40:53;9.40;99.90
11838;DHT22;5978;51.020;6.764;2022-12-20T07:43:19;9.40;99.90
11838;DHT22;5978;51.020;6.764;2022-12-20T07:45:44;9.40;99.90
11838;DHT22;5978;51.020;6.764;2022-12-20T07:48:11;9.40;99.90
11838;DHT22;5978;51.020;6.764;2022-12-20T07:50:38;9.40;99.90
11838;DHT22;5978;51.020;6.764;2022-12-20T07:53:04;9.50;99.90
11838;DHT22;5978;51.020;6.764;2022-12-20T07:55:31;9.50;99.90
11838;DHT22;5978;51.020;6.764;2022-12-20T07:58:01;9.50;99.90
11838;DHT22;5978;51.020;6.764;2022-12-20T08:00:29;9.50;99.90
11838;DHT22;5978;51.020;6.764;2022-12-20T08:03:00;9.50;99.90
11838;DHT22;5978;51.020;6.764;2022-12-20T08:05:28;9.50;99.90
11838;DHT22;5978;51.020;6.764;2022-12-20T08:07:55;9.60;99.90
11838;DHT22;5978;51.020;6.764;2022-12-20T08:10:22;9.60;99.90
11838;DHT22;5978;51.020;6.764;2022-12-20T08:12:48;9.60;99.90
11838;DHT22;5978;51.020;6.764;2022-12-20T08:15:14;9.50;99.90
11838;DHT22;5978;51.020;6.764;2022-12-20T08:17:40;9.60;99.90
11838;DHT22;5978;51.020;6.764;2022-12-20T08:20:06;9.60;99.90
11838;DHT22;5978;51.020;6.764;2022-12-20T08:22:33;9.60;99.90
11838;DHT22;5978;51.020;6.764;2022-12-20T08:24:59;9.60;99.90
11838;DHT22;5978;51.020;6.764;2022-12-20T08:27:24;9.60;99.90
11838;DHT22;5978;51.020;6.764;2022-12-20T08:29:50;9.60;99.90
11838;DHT22;5978;51.020;6.764;2022-12-20T08:32:15;9.60;99.90
11838;DHT22;5978;51.020;6.764;2022-12-20T08:34:41;9.60;99.90
11838;DHT22;5978;51.020;6.764;2022-12-20T08:37:07;9.60;99.90
11838;DHT22;5978;51.020;6.764;2022-12-20T08:39:32;9.60;99.90
11838;DHT22;5978;51.020;6.764;2022-12-20T08:41:58;9.60;99.90
11838;DHT22;5978;51.020;6.764;2022-12-20T08:44:23;9.60;99.90
11838;DHT22;5978;51.020;6.764;2022-12-20T08:46:49;9.70;99.90
11838;DHT22;5978;51.020;6.764;2022-12-20T08:49:15;9.70;99.90
11838;DHT22;5978;51.020;6.764;2022-12-20T08:51:41;9.70;99.90
11838;DHT22;5978;51.020;6.764;2022-12-20T08:54:06;9.70;99.90
11838;DHT22;5978;51.020;6.764;2022-12-20T08:56:32;9.70;99.90
11838;DHT22;5978;51.020;6.764;2022-12-20T08:58:58;9.70;99.90
11838;DHT22;5978;51.020;6.764;2022-12-20T09:01:24;9.80;99.90
11838;DHT22;5978;51.020;6.764;2022-12-20T09:03:51;9.80;99.90
11838;DHT22;5978;51.020;6.764;2022-12-20T09:06:19;9.80;99.90
11838;DHT22;5978;51.020;6.764;2022-12-20T09:08:46;9.80;99.90
11838;DHT22;5978;51.020;6.764;2022-12-20T09:11:13;9.80;99.90
11838;DHT22;5978;51.020;6.764;2022-12-20T09:13:43;9.70;99.90
11838;DHT22;5978;51.020;6.764;2022-12-20T09:16:10;9.70;99.90
11838;DHT22;5978;51.020;6.764;2022-12-20T09:18:35;9.80;99.90
11838;DHT22;5978;51.020;6.764;2022-12-20T09:21:03;9.80;99.90
11838;DHT22;5978;51.020;6.764;2022-12-20T09:23:29;9.80;99.90
11838;DHT22;5978;51.020;6.764;2022-12-20T09:26:00;9.90;99.90
11838;DHT22;5978;51.020;6.764;2022-12-20T09:28:28;9.90;99.90
11838;DHT22;5978;51.020;6.764;2022-12-20T09:31:00;9.90;99.90
11838;DHT22;5978;51.020;6.764;2022-12-20T09:33:26;9.90;99.90
11838;DHT22;5978;51.020;6.764;2022-12-20T09:35:53;10.00;99.90
11838;DHT22;5978;51.020;6.764;2022-12-20T09:38:18;10.00;99.90
11838;DHT22;5978;51.020;6.764;2022-12-20T09:40:49;10.00;99.90
11838;DHT22;5978;51.020;6.764;2022-12-20T09:43:16;10.00;99.90
11838;DHT22;5978;51.020;6.764;2022-12-20T09:45:43;10.00;99.90
11838;DHT22;5978;51.020;6.764;2022-12-20T09:48:19;10.00;99.90
11838;DHT22;5978;51.020;6.764;2022-12-20T09:53:40;10.00;99.90
11838;DHT22;5978;51.020;6.764;2022-12-20T09:59:10;10.10;99.90
11838;DHT22;5978;51.020;6.764;2022-12-20T10:01:37;10.10;99.90
11838;DHT22;5978;51.020;6.764;2022-12-20T10:04:06;10.10;99.90
11838;DHT22;5978;51.020;6.764;2022-12-20T10:06:54;10.10;99.90
11838;DHT22;5978;51.020;6.764;2022-12-20T10:25:52;10.30;99.90
11838;DHT22;5978;51.020;6.764;2022-12-20T10:28:22;10.30;99.90
11838;DHT22;5978;51.020;6.764;2022-12-20T10:30:49;10.30;99.90
11838;DHT22;5978;51.020;6.764;2022-12-20T10:33:20;10.40;99.90
11838;DHT22;5978;51.020;6.764;2022-12-20T10:35:46;10.40;99.90
11838;DHT22;5978;51.020;6.764;2022-12-20T10:38:13;10.40;99.90
11838;DHT22;5978;51.020;6.764;2022-12-20T10:41:00;10.50;99.90
11838;DHT22;5978;51.020;6.764;2022-12-20T10:43:26;10.50;99.90
11838;DHT22;5978;51.020;6.764;2022-12-20T10:46:01;10.50;99.90
11838;DHT22;5978;51.020;6.764;2022-12-20T10:51:02;10.50;99.90
11838;DHT22;5978;51.020;6.764;2022-12-20T10:53:30;10.50;99.90
11838;DHT22;5978;51.020;6.764;2022-12-20T10:56:23;10.60;99.90
11838;DHT22;5978;51.020;6.764;2022-12-20T10:59:00;10.60;99.90
11838;DHT22;5978;51.020;6.764;2022-12-20T11:01:32;10.70;99.90
11838;DHT22;5978;51.020;6.764;2022-12-20T11:04:04;10.70;99.90
11838;DHT22;5978;51.020;6.764;2022-12-20T11:06:43;10.70;99.90
11838;DHT22;5978;51.020;6.764;2022-12-20T11:09:30;10.60;99.90
11838;DHT22;5978;51.020;6.764;2022-12-20T11:12:11;10.60;99.90
11838;DHT22;5978;51.020;6.764;2022-12-20T11:14:38;10.60;99.90
11838;DHT22;5978;51.020;6.764;2022-12-20T11:31:15;10.70;99.90
11838;DHT22;5978;51.020;6.764;2022-12-20T11:34:08;10.70;99.90
11838;DHT22;5978;51.020;6.764;2022-12-20T11:36:58;10.70;99.90
11838;DHT22;5978;51.020;6.764;2022-12-20T11:42:37;10.90;99.90
11838;DHT22;5978;51.020;6.764;2022-12-20T11:48:13;11.00;99.90
11838;DHT22;5978;51.020;6.764;2022-12-20T11:53:25;10.90;99.90
11838;DHT22;5978;51.020;6.764;2022-12-20T11:55:55;11.00;99.90
11838;DHT22;5978;51.020;6.764;2022-12-20T11:58:24;11.00;99.90
11838;DHT22;5978;51.020;6.764;2022-12-20T12:00:52;11.00;99.90
11838;DHT22;5978;51.020;6.764;2022-12-20T12:03:26;10.90;99.90
11838;DHT22;5978;51.020;6.764;2022-12-20T12:06:08;10.90;99.90
11838;DHT22;5978;51.020;6.764;2022-12-20T12:08:49;11.10;99.90
11838;DHT22;5978;51.020;6.764;2022-12-20T12:11:28;11.40;99.90
11838;DHT22;5978;51.020;6.764;2022-12-20T12:13:56;11.80;99.90
11838;DHT22;5978;51.020;6.764;2022-12-20T12:16:32;12.00;99.90
11838;DHT22;5978;51.020;6.764;2022-12-20T12:19:00;12.30;99.90
11838;DHT22;5978;51.020;6.764;2022-12-20T12:21:43;12.40;99.90
11838;DHT22;5978;51.020;6.764;2022-12-20T12:24:17;12.50;99.90
11838;DHT22;5978;51.020;6.764;2022-12-20T12:26:44;12.50;99.90
11838;DHT22;5978;51.020;6.764;2022-12-20T12:29:15;12.50;99.90
11838;DHT22;5978;51.020;6.764;2022-12-20T12:34:26;12.50;99.90
11838;DHT22;5978;51.020;6.764;2022-12-20T12:37:19;12.40;99.90
11838;DHT22;5978;51.020;6.764;2022-12-20T12:45:19;12.10;99.90
11838;DHT22;5978;51.020;6.764;2022-12-20T12:47:51;12.00;99.90
11838;DHT22;5978;51.020;6.764;2022-12-20T12:50:24;12.00;99.90
11838;DHT22;5978;51.020;6.764;2022-12-20T12:52:56;12.00;99.90
11838;DHT22;5978;51.020;6.764;2022-12-20T13:01:03;11.90;99.90
11838;DHT22;5978;51.020;6.764;2022-12-20T13:04:09;11.90;99.90
11838;DHT22;5978;51.020;6.764;2022-12-20T13:11:29;11.90;99.90
11838;DHT22;5978;51.020;6.764;2022-12-20T13:16:43;11.70;99.90
11838;DHT22;5978;51.020;6.764;2022-12-20T13:21:45;11.60;99.90
11838;DHT22;5978;51.020;6.764;2022-12-20T13:29:59;11.30;99.90
11838;DHT22;5978;51.020;6.764;2022-12-20T13:37:56;11.00;99.90
11838;DHT22;5978;51.020;6.764;2022-12-20T13:40:43;10.90;99.90
11838;DHT22;5978;51.020;6.764;2022-12-20T13:48:41;10.80;99.90
11838;DHT22;5978;51.020;6.764;2022-12-20T13:51:19;10.80;99.90
11838;DHT22;5978;51.020;6.764;2022-12-20T13:54:07;10.70;99.90
11838;DHT22;5978;51.020;6.764;2022-12-20T13:56:47;10.70;99.90
11838;DHT22;5978;51.020;6.764;2022-12-20T13:59:15;10.60;99.90
11838;DHT22;5978;51.020;6.764;2022-12-20T14:01:49;10.50;99.90
11838;DHT22;5978;51.020;6.764;2022-12-20T14:04:17;10.50;99.90
11838;DHT22;5978;51.020;6.764;2022-12-20T14:06:43;10.40;99.90
11838;DHT22;5978;51.020;6.764;2022-12-20T14:09:48;10.40;99.90
11838;DHT22;5978;51.020;6.764;2022-12-20T14:12:19;10.40;99.90
11838;DHT22;5978;51.020;6.764;2022-12-20T14:14:46;10.40;99.90
11838;DHT22;5978;51.020;6.764;2022-12-20T14:17:29;10.40;99.90
11838;DHT22;5978;51.020;6.764;2022-12-20T14:20:13;10.40;99.90
11838;DHT22;5978;51.020;6.764;2022-12-20T14:25:14;10.30;99.90
11838;DHT22;5978;51.020;6.764;2022-12-20T14:27:40;10.30;99.90
11838;DHT22;5978;51.020;6.764;2022-12-20T14:30:23;10.30;99.90
11838;DHT22;5978;51.020;6.764;2022-12-20T14:32:50;10.30;99.90
11838;DHT22;5978;51.020;6.764;2022-12-20T14:35:19;10.40;99.90
11838;DHT22;5978;51.020;6.764;2022-12-20T14:37:53;10.40;99.90
11838;DHT22;5978;51.020;6.764;2022-12-20T14:40:20;10.50;99.90
11838;DHT22;5978;51.020;6.764;2022-12-20T14:42:46;10.50;99.90
11838;DHT22;5978;51.020;6.764;2022-12-20T14:45:25;10.50;99.90
11838;DHT22;5978;51.020;6.764;2022-12-20T14:48:01;10.60;99.90
11838;DHT22;5978;51.020;6.764;2022-12-20T14:50:32;10.60;99.90
11838;DHT22;5978;51.020;6.764;2022-12-20T14:52:58;10.60;99.90
11838;DHT22;5978;51.020;6.764;2022-12-20T14:57:56;10.60;99.90
11838;DHT22;5978;51.020;6.764;2022-12-20T15:00:29;10.60;99.90
11838;DHT22;5978;51.020;6.764;2022-12-20T15:08:24;10.50;99.90
11838;DHT22;5978;51.020;6.764;2022-12-20T15:16:00;10.40;99.90
11838;DHT22;5978;51.020;6.764;2022-12-20T15:18:26;10.40;99.90
11838;DHT22;5978;51.020;6.764;2022-12-20T15:21:14;10.40;99.90
11838;DHT22;5978;51.020;6.764;2022-12-20T15:23:49;10.40;99.90
11838;DHT22;5978;51.020;6.764;2022-12-20T15:26:21;10.40;99.90
11838;DHT22;5978;51.020;6.764;2022-12-20T15:28:47;10.40;99.90
11838;DHT22;5978;51.020;6.764;2022-12-20T15:31:15;10.40;99.90
11838;DHT22;5978;51.020;6.764;2022-12-20T15:33:42;10.40;99.90
11838;DHT22;5978;51.020;6.764;2022-12-20T15:36:17;10.30;99.90
11838;DHT22;5978;51.020;6.764;2022-12-20T15:38:43;10.30;99.90
11838;DHT22;5978;51.020;6.764;2022-12-20T15:41:18;10.30;99.90
11838;DHT22;5978;51.020;6.764;2022-12-20T15:43:44;10.30;99.90
11838;DHT22;5978;51.020;6.764;2022-12-20T15:46:10;10.30;99.90
11838;DHT22;5978;51.020;6.764;2022-12-20T15:48:36;10.20;99.90
11838;DHT22;5978;51.020;6.764;2022-12-20T15:51:06;10.20;99.90
11838;DHT22;5978;51.020;6.764;2022-12-20T15:53:36;10.20;99.90
11838;DHT22;5978;51.020;6.764;2022-12-20T15:56:01;10.20;99.90
11838;DHT22;5978;51.020;6.764;2022-12-20T15:58:27;10.20;99.90
11838;DHT22;5978;51.020;6.764;2022-12-20T16:00:54;10.10;99.90
11838;DHT22;5978;51.020;6.764;2022-12-20T16:03:24;10.00;99.90
11838;DHT22;5978;51.020;6.764;2022-12-20T16:05:51;10.10;99.90
11838;DHT22;5978;51.020;6.764;2022-12-20T16:08:17;10.10;99.90
11838;DHT22;5978;51.020;6.764;2022-12-20T16:10:46;10.10;99.90
11838;DHT22;5978;51.020;6.764;2022-12-20T16:13:19;10.00;99.90
11838;DHT22;5978;51.020;6.764;2022-12-20T16:15:45;10.00;99.90
11838;DHT22;5978;51.020;6.764;2022-12-20T16:18:11;10.00;99.90
11838;DHT22;5978;51.020;6.764;2022-12-20T16:20:37;10.10;99.90
11838;DHT22;5978;51.020;6.764;2022-12-20T16:23:03;10.10;99.90
11838;DHT22;5978;51.020;6.764;2022-12-20T16:25:34;10.10;99.90
11838;DHT22;5978;51.020;6.764;2022-12-20T16:28:00;10.10;99.90
11838;DHT22;5978;51.020;6.764;2022-12-20T16:30:27;10.00;99.90
11838;DHT22;5978;51.020;6.764;2022-12-20T16:32:53;10.00;99.90
11838;DHT22;5978;51.020;6.764;2022-12-20T16:37:49;9.90;99.90
11838;DHT22;5978;51.020;6.764;2022-12-20T16:40:14;9.90;99.90
11838;DHT22;5978;51.020;6.764;2022-12-20T16:42:40;9.90;99.90
11838;DHT22;5978;51.020;6.764;2022-12-20T16:45:10;9.90;99.90
11838;DHT22;5978;51.020;6.764;2022-12-20T16:47:37;9.90;99.90
11838;DHT22;5978;51.020;6.764;2022-12-20T16:50:05;9.80;99.90
11838;DHT22;5978;51.020;6.764;2022-12-20T16:52:31;9.80;99.90
11838;DHT22;5978;51.020;6.764;2022-12-20T16:55:01;9.90;99.90
11838;DHT22;5978;51.020;6.764;2022-12-20T16:57:26;9.90;99.90
11838;DHT22;5978;51.020;6.764;2022-12-20T16:59:52;9.90;99.90
11838;DHT22;5978;51.020;6.764;2022-12-20T17:02:29;9.90;99.90
11838;DHT22;5978;51.020;6.764;2022-12-20T17:04:57;9.90;99.90
11838;DHT22;5978;51.020;6.764;2022-12-20T17:07:23;10.00;99.90
11838;DHT22;5978;51.020;6.764;2022-12-20T17:09:49;9.90;99.90
11838;DHT22;5978;51.020;6.764;2022-12-20T17:12:18;9.90;99.90
11838;DHT22;5978;51.020;6.764;2022-12-20T17:14:44;9.90;99.90
11838;DHT22;5978;51.020;6.764;2022-12-20T17:17:09;9.90;99.90
11838;DHT22;5978;51.020;6.764;2022-12-20T17:19:35;10.00;99.90
11838;DHT22;5978;51.020;6.764;2022-12-20T17:22:01;10.00;99.90
11838;DHT22;5978;51.020;6.764;2022-12-20T17:24:27;9.90;99.90
11838;DHT22;5978;51.020;6.764;2022-12-20T17:26:52;10.00;99.90
11838;DHT22;5978;51.020;6.764;2022-12-20T17:29:18;10.00;99.90
11838;DHT22;5978;51.020;6.764;2022-12-20T17:31:45;10.00;99.90
11838;DHT22;5978;51.020;6.764;2022-12-20T17:34:28;10.00;99.90
11838;DHT22;5978;51.020;6.764;2022-12-20T17:36:56;10.00;99.90
11838;DHT22;5978;51.020;6.764;2022-12-20T17:39:23;10.00;99.90
11838;DHT22;5978;51.020;6.764;2022-12-20T17:41:49;10.10;99.90
11838;DHT22;5978;51.020;6.764;2022-12-20T17:44:19;10.00;99.90
11838;DHT22;5978;51.020;6.764;2022-12-20T17:46:45;10.00;99.90
11838;DHT22;5978;51.020;6.764;2022-12-20T17:49:11;10.00;99.90
11838;DHT22;5978;51.020;6.764;2022-12-20T17:51:37;10.00;99.90
11838;DHT22;5978;51.020;6.764;2022-12-20T17:54:03;10.00;99.90
11838;DHT22;5978;51.020;6.764;2022-12-20T17:56:34;10.00;99.90
11838;DHT22;5978;51.020;6.764;2022-12-20T17:59:01;10.00;99.90
11838;DHT22;5978;51.020;6.764;2022-12-20T18:01:30;10.00;99.90